sensor_id;sensor_type;location;lat;lon;timestamp;pressure;altitude;pressure_sealevel;temperature;humidity
46291;BME280;32023;44.444;26.006;2023-04-08T00:01:38;100881.00;;;6.48;67.36
46291;BME280;32023;44.444;26.006;2023-04-08T00:04:07;100881.84;;;6.42;67.35
46291;BME280;32023;44.444;26.006;2023-04-08T00:06:38;100878.91;;;6.44;67.16
46291;BME280;32023;44.444;26.006;2023-04-08T00:09:05;100879.31;;;6.47;67.38
46291;BME280;32023;44.444;26.006;2023-04-08T00:11:37;100879.31;;;6.47;67.41
46291;BME280;32023;44.444;26.006;2023-04-08T00:14:08;100876.38;;;6.49;67.12
46291;BME280;32023;44.444;26.006;2023-04-08T00:16:36;100876.75;;;6.52;66.78
46291;BME280;32023;44.444;26.006;2023-04-08T00:19:20;100878.00;;;6.56;66.63
46291;BME280;32023;44.444;26.006;2023-04-08T00:21:50;100871.88;;;6.54;66.83
46291;BME280;32023;44.444;26.006;2023-04-08T00:24:17;100868.09;;;6.55;66.27
46291;BME280;32023;44.444;26.006;2023-04-08T00:26:44;100872.13;;;6.53;66.15
46291;BME280;32023;44.444;26.006;2023-04-08T00:29:10;100881.34;;;6.58;66.47
46291;BME280;32023;44.444;26.006;2023-04-08T00:31:37;100866.53;;;6.66;66.46
46291;BME280;32023;44.444;26.006;2023-04-08T00:34:10;100870.31;;;6.71;66.00
46291;BME280;32023;44.444;26.006;2023-04-08T00:36:37;100859.75;;;6.75;65.86
46291;BME280;32023;44.444;26.006;2023-04-08T00:39:04;100868.97;;;6.81;66.06
46291;BME280;32023;44.444;26.006;2023-04-08T00:41:35;100877.81;;;6.83;65.46
46291;BME280;32023;44.444;26.006;2023-04-08T00:44:04;100872.94;;;6.85;65.76
46291;BME280;32023;44.444;26.006;2023-04-08T00:46:34;100868.28;;;6.85;65.33
46291;BME280;32023;44.444;26.006;2023-04-08T00:49:01;100872.25;;;6.89;65.53
46291;BME280;32023;44.444;26.006;2023-04-08T00:51:29;100868.03;;;6.93;65.05
46291;BME280;32023;44.444;26.006;2023-04-08T00:53:56;100872.19;;;6.96;64.35
46291;BME280;32023;44.444;26.006;2023-04-08T00:56:23;100871.34;;;6.95;64.27
46291;BME280;32023;44.444;26.006;2023-04-08T00:59:00;100878.50;;;6.96;64.15
46291;BME280;32023;44.444;26.006;2023-04-08T01:07:44;100872.59;;;6.99;64.52
46291;BME280;32023;44.444;26.006;2023-04-08T01:10:25;100869.44;;;7.02;64.41
46291;BME280;32023;44.444;26.006;2023-04-08T01:13:15;100873.38;;;7.06;64.78
46291;BME280;32023;44.444;26.006;2023-04-08T01:15:43;100869.81;;;7.06;64.53
46291;BME280;32023;44.444;26.006;2023-04-08T01:18:12;100872.16;;;7.02;64.49
46291;BME280;32023;44.444;26.006;2023-04-08T01:20:42;100882.09;;;6.97;64.47
46291;BME280;32023;44.444;26.006;2023-04-08T01:23:45;100883.59;;;6.93;64.10
46291;BME280;32023;44.444;26.006;2023-04-08T01:26:23;100876.13;;;6.82;64.30
46291;BME280;32023;44.444;26.006;2023-04-08T01:28:56;100879.44;;;6.84;64.18
46291;BME280;32023;44.444;26.006;2023-04-08T01:31:25;100876.91;;;6.89;63.85
46291;BME280;32023;44.444;26.006;2023-04-08T01:33:53;100882.56;;;6.94;63.90
46291;BME280;32023;44.444;26.006;2023-04-08T01:36:21;100867.34;;;6.98;63.69
46291;BME280;32023;44.444;26.006;2023-04-08T01:38:49;100872.38;;;7.01;63.46
46291;BME280;32023;44.444;26.006;2023-04-08T01:41:20;100870.88;;;7.05;63.63
46291;BME280;32023;44.444;26.006;2023-04-08T01:43:47;100862.00;;;7.09;63.80
46291;BME280;32023;44.444;26.006;2023-04-08T01:46:15;100867.84;;;7.13;63.50
46291;BME280;32023;44.444;26.006;2023-04-08T01:48:42;100868.22;;;7.16;63.15
46291;BME280;32023;44.444;26.006;2023-04-08T01:51:14;100870.53;;;7.19;63.01
46291;BME280;32023;44.444;26.006;2023-04-08T01:53:41;100876.59;;;7.21;62.87
46291;BME280;32023;44.444;26.006;2023-04-08T01:56:12;100880.16;;;7.22;63.07
46291;BME280;32023;44.444;26.006;2023-04-08T01:58:47;100871.97;;;7.22;62.94
46291;BME280;32023;44.444;26.006;2023-04-08T02:01:18;100876.38;;;7.23;63.12
46291;BME280;32023;44.444;26.006;2023-04-08T02:03:46;100873.84;;;7.21;63.22
46291;BME280;32023;44.444;26.006;2023-04-08T02:06:13;100872.81;;;7.22;63.06
46291;BME280;32023;44.444;26.006;2023-04-08T02:08:39;100869.84;;;7.24;63.10
46291;BME280;32023;44.444;26.006;2023-04-08T02:11:12;100869.38;;;7.27;63.47
46291;BME280;32023;44.444;26.006;2023-04-08T02:13:39;100868.34;;;7.28;63.76
46291;BME280;32023;44.444;26.006;2023-04-08T02:16:51;100870.22;;;7.28;63.69
46291;BME280;32023;44.444;26.006;2023-04-08T02:19:19;100872.72;;;7.29;63.95
46291;BME280;32023;44.444;26.006;2023-04-08T02:21:54;100868.53;;;7.26;64.20
46291;BME280;32023;44.444;26.006;2023-04-08T02:24:22;100865.59;;;7.28;63.89
46291;BME280;32023;44.444;26.006;2023-04-08T02:26:50;100862.84;;;7.28;64.14
46291;BME280;32023;44.444;26.006;2023-04-08T02:29:18;100867.25;;;7.29;64.18
46291;BME280;32023;44.444;26.006;2023-04-08T02:31:58;100862.63;;;7.30;64.12
46291;BME280;32023;44.444;26.006;2023-04-08T02:34:31;100864.28;;;7.31;64.02
46291;BME280;32023;44.444;26.006;2023-04-08T02:37:07;100861.78;;;7.29;64.06
46291;BME280;32023;44.444;26.006;2023-04-08T02:39:34;100865.13;;;7.31;64.11
46291;BME280;32023;44.444;26.006;2023-04-08T02:42:01;100864.28;;;7.31;63.96
46291;BME280;32023;44.444;26.006;2023-04-08T02:44:30;100863.00;;;7.33;63.93
46291;BME280;32023;44.444;26.006;2023-04-08T02:47:01;100871.00;;;7.35;64.18
46291;BME280;32023;44.444;26.006;2023-04-08T02:49:29;100866.34;;;7.35;64.59
46291;BME280;32023;44.444;26.006;2023-04-08T02:51:56;100862.56;;;7.36;64.95
46291;BME280;32023;44.444;26.006;2023-04-08T02:54:22;100858.16;;;7.35;65.16
46291;BME280;32023;44.444;26.006;2023-04-08T02:56:55;100860.41;;;7.38;65.13
46291;BME280;32023;44.444;26.006;2023-04-08T02:59:28;100867.81;;;7.38;65.00
46291;BME280;32023;44.444;26.006;2023-04-08T03:01:57;100864.22;;;7.37;65.26
46291;BME280;32023;44.444;26.006;2023-04-08T03:04:23;100868.25;;;7.35;65.08
46291;BME280;32023;44.444;26.006;2023-04-08T03:06:50;100864.69;;;7.34;64.93
46291;BME280;32023;44.444;26.006;2023-04-08T03:09:16;100868.47;;;7.33;65.07
46291;BME280;32023;44.444;26.006;2023-04-08T03:11:46;100872.31;;;7.32;65.13
46291;BME280;32023;44.444;26.006;2023-04-08T03:14:20;100878.84;;;7.31;65.40
46291;BME280;32023;44.444;26.006;2023-04-08T03:16:49;100885.38;;;7.30;65.80
46291;BME280;32023;44.444;26.006;2023-04-08T03:19:16;100883.69;;;7.29;65.62
46291;BME280;32023;44.444;26.006;2023-04-08T03:21:44;100886.41;;;7.29;65.60
46291;BME280;32023;44.444;26.006;2023-04-08T03:24:12;100880.34;;;7.27;65.21
46291;BME280;32023;44.444;26.006;2023-04-08T03:26:38;100877.59;;;7.27;65.34
46291;BME280;32023;44.444;26.006;2023-04-08T03:29:04;100880.34;;;7.27;65.16
46291;BME280;32023;44.444;26.006;2023-04-08T03:31:34;100887.50;;;7.28;64.52
46291;BME280;32023;44.444;26.006;2023-04-08T03:34:04;100889.16;;;7.29;64.52
46291;BME280;32023;44.444;26.006;2023-04-08T03:36:35;100894.63;;;7.29;64.17
46291;BME280;32023;44.444;26.006;2023-04-08T03:39:04;100893.59;;;7.30;64.10
46291;BME280;32023;44.444;26.006;2023-04-08T03:41:31;100899.69;;;7.32;64.25
46291;BME280;32023;44.444;26.006;2023-04-08T03:44:00;100901.59;;;7.32;64.02
46291;BME280;32023;44.444;26.006;2023-04-08T03:46:29;100910.66;;;7.32;63.93
46291;BME280;32023;44.444;26.006;2023-04-08T03:48:57;100916.13;;;7.32;64.48
46291;BME280;32023;44.444;26.006;2023-04-08T03:51:27;100909.56;;;7.33;64.52
46291;BME280;32023;44.444;26.006;2023-04-08T03:53:56;100915.03;;;7.33;64.92
46291;BME280;32023;44.444;26.006;2023-04-08T03:56:23;100921.59;;;7.32;64.76
46291;BME280;32023;44.444;26.006;2023-04-08T03:58:50;100912.53;;;7.32;64.80
46291;BME280;32023;44.444;26.006;2023-04-08T04:01:19;100920.53;;;7.33;64.99
46291;BME280;32023;44.444;26.006;2023-04-08T04:03:50;100918.63;;;7.34;65.19
46291;BME280;32023;44.444;26.006;2023-04-08T04:06:19;100922.22;;;7.34;65.60
46291;BME280;32023;44.444;26.006;2023-04-08T04:08:53;100918.41;;;7.35;65.88
46291;BME280;32023;44.444;26.006;2023-04-08T04:11:23;100930.44;;;7.34;66.00
46291;BME280;32023;44.444;26.006;2023-04-08T04:14:06;100921.38;;;7.34;66.01
46291;BME280;32023;44.444;26.006;2023-04-08T04:16:42;100924.94;;;7.34;66.39
46291;BME280;32023;44.444;26.006;2023-04-08T04:19:09;100934.59;;;7.37;66.38
46291;BME280;32023;44.444;26.006;2023-04-08T04:21:36;100931.06;;;7.36;66.31
46291;BME280;32023;44.444;26.006;2023-04-08T04:24:02;100934.84;;;7.35;66.11
46291;BME280;32023;44.444;26.006;2023-04-08T04:26:36;100931.66;;;7.38;66.25
46291;BME280;32023;44.444;26.006;2023-04-08T04:29:03;100935.63;;;7.42;66.35
46291;BME280;32023;44.444;26.006;2023-04-08T04:31:33;100935.16;;;7.45;66.20
46291;BME280;32023;44.444;26.006;2023-04-08T04:34:03;100944.00;;;7.47;66.28
46291;BME280;32023;44.444;26.006;2023-04-08T04:36:32;100938.75;;;7.46;66.47
46291;BME280;32023;44.444;26.006;2023-04-08T04:38:58;100939.34;;;7.48;66.75
46291;BME280;32023;44.444;26.006;2023-04-08T04:41:33;100940.56;;;7.52;67.13
46291;BME280;32023;44.444;26.006;2023-04-08T04:44:17;100954.22;;;7.58;67.09
46291;BME280;32023;44.444;26.006;2023-04-08T04:46:47;100957.56;;;7.60;67.42
46291;BME280;32023;44.444;26.006;2023-04-08T04:49:13;100947.44;;;7.61;67.62
46291;BME280;32023;44.444;26.006;2023-04-08T04:51:40;100954.84;;;7.60;67.71
46291;BME280;32023;44.444;26.006;2023-04-08T04:54:06;100957.75;;;7.65;67.90
46291;BME280;32023;44.444;26.006;2023-04-08T04:56:35;100964.00;;;7.72;68.03
46291;BME280;32023;44.444;26.006;2023-04-08T04:59:02;100964.16;;;7.78;67.82
46291;BME280;32023;44.444;26.006;2023-04-08T05:01:34;100962.19;;;7.85;67.75
46291;BME280;32023;44.444;26.006;2023-04-08T05:04:00;100960.66;;;7.89;67.98
46291;BME280;32023;44.444;26.006;2023-04-08T05:06:27;100968.19;;;7.93;67.82
46291;BME280;32023;44.444;26.006;2023-04-08T05:08:53;100962.66;;;8.00;68.11
46291;BME280;32023;44.444;26.006;2023-04-08T05:11:22;100971.84;;;8.05;68.23
46291;BME280;32023;44.444;26.006;2023-04-08T05:13:48;100963.16;;;8.08;68.01
46291;BME280;32023;44.444;26.006;2023-04-08T05:16:15;100972.63;;;8.12;68.16
46291;BME280;32023;44.444;26.006;2023-04-08T05:18:47;100975.31;;;8.19;67.75
46291;BME280;32023;44.444;26.006;2023-04-08T05:21:15;100970.31;;;8.28;67.62
46291;BME280;32023;44.444;26.006;2023-04-08T05:23:41;100973.84;;;8.35;67.67
46291;BME280;32023;44.444;26.006;2023-04-08T05:26:07;100978.19;;;8.42;67.43
46291;BME280;32023;44.444;26.006;2023-04-08T05:28:34;100973.91;;;8.46;66.91
46291;BME280;32023;44.444;26.006;2023-04-08T05:31:01;100979.41;;;8.46;66.44
46291;BME280;32023;44.444;26.006;2023-04-08T05:33:32;100977.44;;;8.53;66.31
46291;BME280;32023;44.444;26.006;2023-04-08T05:35:59;100979.25;;;8.59;65.83
46291;BME280;32023;44.444;26.006;2023-04-08T05:38:25;100972.38;;;8.68;65.77
46291;BME280;32023;44.444;26.006;2023-04-08T05:40:54;100975.38;;;8.79;65.31
46291;BME280;32023;44.444;26.006;2023-04-08T05:43:23;100978.03;;;8.85;64.82
46291;BME280;32023;44.444;26.006;2023-04-08T05:45:59;100972.91;;;8.89;64.56
46291;BME280;32023;44.444;26.006;2023-04-08T05:48:25;100974.72;;;8.95;64.50
46291;BME280;32023;44.444;26.006;2023-04-08T05:50:52;100979.06;;;9.02;63.64
46291;BME280;32023;44.444;26.006;2023-04-08T05:53:18;100976.06;;;9.04;63.69
46291;BME280;32023;44.444;26.006;2023-04-08T05:55:47;100983.59;;;9.08;63.05
46291;BME280;32023;44.444;26.006;2023-04-08T05:58:13;100976.09;;;9.15;62.91
46291;BME280;32023;44.444;26.006;2023-04-08T06:00:40;100986.38;;;9.20;62.67
46291;BME280;32023;44.444;26.006;2023-04-08T06:03:16;100986.13;;;9.22;62.23
46291;BME280;32023;44.444;26.006;2023-04-08T06:05:42;100988.28;;;9.19;62.40
46291;BME280;32023;44.444;26.006;2023-04-08T06:08:09;100992.22;;;9.24;62.53
46291;BME280;32023;44.444;26.006;2023-04-08T06:10:35;100990.44;;;9.29;61.81
46291;BME280;32023;44.444;26.006;2023-04-08T06:13:02;100986.41;;;9.32;62.06
46291;BME280;32023;44.444;26.006;2023-04-08T06:15:28;100988.88;;;9.33;62.05
46291;BME280;32023;44.444;26.006;2023-04-08T06:17:56;100993.22;;;9.41;61.82
46291;BME280;32023;44.444;26.006;2023-04-08T06:20:23;100986.78;;;9.47;61.38
46291;BME280;32023;44.444;26.006;2023-04-08T06:22:49;100982.59;;;9.56;61.23
46291;BME280;32023;44.444;26.006;2023-04-08T06:25:16;100973.03;;;9.58;60.33
46291;BME280;32023;44.444;26.006;2023-04-08T06:27:43;100985.25;;;9.62;60.50
46291;BME280;32023;44.444;26.006;2023-04-08T06:30:09;100983.22;;;9.70;60.19
46291;BME280;32023;44.444;26.006;2023-04-08T06:32:41;100984.50;;;9.67;59.93
46291;BME280;32023;44.444;26.006;2023-04-08T06:35:09;100977.09;;;9.67;60.15
46291;BME280;32023;44.444;26.006;2023-04-08T06:37:35;100981.03;;;9.72;60.10
46291;BME280;32023;44.444;26.006;2023-04-08T06:40:04;100980.34;;;9.76;60.35
46291;BME280;32023;44.444;26.006;2023-04-08T06:42:31;100988.72;;;9.81;59.86
46291;BME280;32023;44.444;26.006;2023-04-08T06:44:57;100983.22;;;9.81;59.51
46291;BME280;32023;44.444;26.006;2023-04-08T06:47:24;100986.78;;;9.93;59.36
46291;BME280;32023;44.444;26.006;2023-04-08T06:49:59;100980.53;;;10.09;58.54
46291;BME280;32023;44.444;26.006;2023-04-08T06:52:26;100981.03;;;10.30;58.36
46291;BME280;32023;44.444;26.006;2023-04-08T06:54:55;100979.63;;;10.55;58.17
46291;BME280;32023;44.444;26.006;2023-04-08T06:57:28;100980.88;;;10.76;57.61
46291;BME280;32023;44.444;26.006;2023-04-08T06:59:55;100972.13;;;10.96;56.99
46291;BME280;32023;44.444;26.006;2023-04-08T07:02:21;100973.09;;;11.18;55.23
46291;BME280;32023;44.444;26.006;2023-04-08T07:08:27;100971.78;;;11.54;54.07
46291;BME280;32023;44.444;26.006;2023-04-08T07:10:53;100974.41;;;11.77;52.59
46291;BME280;32023;44.444;26.006;2023-04-08T07:13:20;100978.28;;;11.98;51.57
46291;BME280;32023;44.444;26.006;2023-04-08T07:15:48;100979.59;;;12.12;50.51
46291;BME280;32023;44.444;26.006;2023-04-08T07:18:17;100981.22;;;12.30;50.10
46291;BME280;32023;44.444;26.006;2023-04-08T07:20:43;100986.03;;;12.39;49.00
46291;BME280;32023;44.444;26.006;2023-04-08T07:23:13;100986.81;;;12.57;48.15
46291;BME280;32023;44.444;26.006;2023-04-08T07:25:40;100985.25;;;12.66;48.09
46291;BME280;32023;44.444;26.006;2023-04-08T07:28:06;100992.38;;;12.83;48.16
46291;BME280;32023;44.444;26.006;2023-04-08T07:30:32;100990.56;;;12.94;46.68
46291;BME280;32023;44.444;26.006;2023-04-08T07:32:59;100979.56;;;12.99;45.87
46291;BME280;32023;44.444;26.006;2023-04-08T07:35:25;100989.16;;;13.18;45.38
46291;BME280;32023;44.444;26.006;2023-04-08T07:37:52;100979.34;;;13.32;45.32
46291;BME280;32023;44.444;26.006;2023-04-08T07:40:20;100985.88;;;13.53;44.72
46291;BME280;32023;44.444;26.006;2023-04-08T07:42:47;100983.53;;;13.72;44.27
46291;BME280;32023;44.444;26.006;2023-04-08T07:48:36;100983.28;;;14.15;43.13
46291;BME280;32023;44.444;26.006;2023-04-08T07:51:08;100986.03;;;14.10;42.65
46291;BME280;32023;44.444;26.006;2023-04-08T07:53:35;100982.09;;;14.01;42.72
46291;BME280;32023;44.444;26.006;2023-04-08T07:56:01;100985.97;;;14.05;42.29
46291;BME280;32023;44.444;26.006;2023-04-08T07:58:33;100992.16;;;14.17;42.40
46291;BME280;32023;44.444;26.006;2023-04-08T08:01:02;100982.22;;;14.21;41.92
46291;BME280;32023;44.444;26.006;2023-04-08T08:03:35;100984.19;;;14.26;42.04
46291;BME280;32023;44.444;26.006;2023-04-08T08:06:04;100992.75;;;14.19;42.49
46291;BME280;32023;44.444;26.006;2023-04-08T08:08:32;100989.97;;;14.24;42.22
46291;BME280;32023;44.444;26.006;2023-04-08T08:11:00;100999.22;;;14.35;41.99
46291;BME280;32023;44.444;26.006;2023-04-08T08:13:29;101010.91;;;14.42;41.75
46291;BME280;32023;44.444;26.006;2023-04-08T08:15:55;100993.19;;;14.48;41.72
46291;BME280;32023;44.444;26.006;2023-04-08T08:18:24;100994.06;;;14.59;40.90
46291;BME280;32023;44.444;26.006;2023-04-08T08:20:53;100999.09;;;14.72;40.42
46291;BME280;32023;44.444;26.006;2023-04-08T08:23:21;101003.44;;;14.48;40.87
46291;BME280;32023;44.444;26.006;2023-04-08T08:26:08;100993.97;;;14.38;41.17
46291;BME280;32023;44.444;26.006;2023-04-08T08:28:40;101001.25;;;14.55;40.91
46291;BME280;32023;44.444;26.006;2023-04-08T08:31:06;100995.72;;;14.60;40.62
46291;BME280;32023;44.444;26.006;2023-04-08T08:33:43;101005.72;;;14.61;40.05
46291;BME280;32023;44.444;26.006;2023-04-08T08:36:14;101006.09;;;14.27;40.51
46291;BME280;32023;44.444;26.006;2023-04-08T08:38:43;100993.47;;;14.05;40.99
46291;BME280;32023;44.444;26.006;2023-04-08T08:41:12;100995.72;;;14.08;41.23
46291;BME280;32023;44.444;26.006;2023-04-08T08:43:41;101001.56;;;14.16;41.10
46291;BME280;32023;44.444;26.006;2023-04-08T08:46:10;100998.50;;;14.13;41.11
46291;BME280;32023;44.444;26.006;2023-04-08T08:48:37;101002.94;;;14.14;41.45
46291;BME280;32023;44.444;26.006;2023-04-08T08:51:12;101003.22;;;14.12;41.38
46291;BME280;32023;44.444;26.006;2023-04-08T08:53:38;101006.00;;;14.12;41.51
46291;BME280;32023;44.444;26.006;2023-04-08T08:56:10;101002.69;;;14.20;41.46
46291;BME280;32023;44.444;26.006;2023-04-08T08:58:42;101007.78;;;14.33;41.39
46291;BME280;32023;44.444;26.006;2023-04-08T09:04:14;101006.00;;;14.69;40.56
46291;BME280;32023;44.444;26.006;2023-04-08T09:06:42;101006.84;;;14.70;40.26
46291;BME280;32023;44.444;26.006;2023-04-08T09:09:08;101005.78;;;14.76;40.06
46291;BME280;32023;44.444;26.006;2023-04-08T09:11:36;101008.00;;;14.79;39.86
46291;BME280;32023;44.444;26.006;2023-04-08T09:14:04;101008.25;;;14.77;40.13
46291;BME280;32023;44.444;26.006;2023-04-08T09:16:32;101001.34;;;14.75;40.46
46291;BME280;32023;44.444;26.006;2023-04-08T09:19:11;101000.47;;;14.69;39.96
46291;BME280;32023;44.444;26.006;2023-04-08T09:21:41;101001.53;;;14.58;40.22
46291;BME280;32023;44.444;26.006;2023-04-08T09:24:27;101001.75;;;14.46;40.15
46291;BME280;32023;44.444;26.006;2023-04-08T09:26:56;101006.59;;;14.24;40.52
46291;BME280;32023;44.444;26.006;2023-04-08T09:29:24;100998.19;;;14.09;40.99
46291;BME280;32023;44.444;26.006;2023-04-08T09:31:58;101003.03;;;13.87;42.00
46291;BME280;32023;44.444;26.006;2023-04-08T09:34:25;100999.91;;;13.73;42.63
46291;BME280;32023;44.444;26.006;2023-04-08T09:36:52;101000.09;;;13.62;42.90
46291;BME280;32023;44.444;26.006;2023-04-08T09:39:19;101002.53;;;13.58;43.11
46291;BME280;32023;44.444;26.006;2023-04-08T09:41:48;100996.22;;;13.63;43.22
46291;BME280;32023;44.444;26.006;2023-04-08T09:44:17;101000.13;;;13.67;43.26
46291;BME280;32023;44.444;26.006;2023-04-08T09:47:11;101003.72;;;13.67;42.78
46291;BME280;32023;44.444;26.006;2023-04-08T09:49:49;101001.56;;;13.74;42.56
46291;BME280;32023;44.444;26.006;2023-04-08T09:52:37;101003.03;;;13.82;42.83
46291;BME280;32023;44.444;26.006;2023-04-08T09:55:08;101011.81;;;13.79;42.50
46291;BME280;32023;44.444;26.006;2023-04-08T09:57:50;101007.38;;;13.73;42.28
46291;BME280;32023;44.444;26.006;2023-04-08T10:00:23;101013.50;;;13.80;42.42
46291;BME280;32023;44.444;26.006;2023-04-08T10:03:11;101011.94;;;13.89;42.39
46291;BME280;32023;44.444;26.006;2023-04-08T10:05:51;101006.69;;;13.97;42.14
46291;BME280;32023;44.444;26.006;2023-04-08T10:08:25;101009.03;;;14.11;41.64
46291;BME280;32023;44.444;26.006;2023-04-08T10:10:55;101007.19;;;14.26;40.90
46291;BME280;32023;44.444;26.006;2023-04-08T10:13:23;101009.25;;;14.46;40.63
46291;BME280;32023;44.444;26.006;2023-04-08T10:16:21;101012.06;;;14.56;40.20
46291;BME280;32023;44.444;26.006;2023-04-08T10:18:49;101012.50;;;15.00;40.15
46291;BME280;32023;44.444;26.006;2023-04-08T10:21:37;101007.09;;;15.71;38.57
46291;BME280;32023;44.444;26.006;2023-04-08T10:24:11;101005.91;;;16.27;37.74
46291;BME280;32023;44.444;26.006;2023-04-08T10:26:41;101003.41;;;17.44;35.48
46291;BME280;32023;44.444;26.006;2023-04-08T10:29:29;101009.59;;;18.80;33.50
46291;BME280;32023;44.444;26.006;2023-04-08T10:31:56;100998.41;;;19.92;31.88
46291;BME280;32023;44.444;26.006;2023-04-08T10:34:27;100989.06;;;20.70;30.09
46291;BME280;32023;44.444;26.006;2023-04-08T10:36:57;100997.16;;;20.44;29.76
46291;BME280;32023;44.444;26.006;2023-04-08T10:39:30;100993.72;;;19.55;29.94
46291;BME280;32023;44.444;26.006;2023-04-08T10:42:04;100989.41;;;18.88;31.58
46291;BME280;32023;44.444;26.006;2023-04-08T10:44:44;100988.34;;;19.21;31.10
46291;BME280;32023;44.444;26.006;2023-04-08T10:47:11;100992.56;;;19.00;31.17
46291;BME280;32023;44.444;26.006;2023-04-08T10:49:38;100987.84;;;18.77;31.50
46291;BME280;32023;44.444;26.006;2023-04-08T10:52:07;100993.63;;;18.38;32.02
46291;BME280;32023;44.444;26.006;2023-04-08T10:54:36;100990.16;;;18.22;32.35
46291;BME280;32023;44.444;26.006;2023-04-08T10:57:03;100987.97;;;18.91;31.79
46291;BME280;32023;44.444;26.006;2023-04-08T10:59:31;100992.72;;;19.28;31.12
46291;BME280;32023;44.444;26.006;2023-04-08T11:02:00;100982.00;;;18.97;31.28
46291;BME280;32023;44.444;26.006;2023-04-08T11:04:27;100985.47;;;18.89;31.60
46291;BME280;32023;44.444;26.006;2023-04-08T11:06:53;100975.59;;;19.53;30.97
46291;BME280;32023;44.444;26.006;2023-04-08T11:09:21;100974.47;;;21.23;29.14
46291;BME280;32023;44.444;26.006;2023-04-08T11:11:48;100971.31;;;22.75;26.91
46291;BME280;32023;44.444;26.006;2023-04-08T11:14:17;100961.81;;;23.36;26.12
46291;BME280;32023;44.444;26.006;2023-04-08T11:16:47;100975.56;;;23.55;26.01
46291;BME280;32023;44.444;26.006;2023-04-08T11:19:16;100972.78;;;24.27;25.15
46291;BME280;32023;44.444;26.006;2023-04-08T11:21:43;100979.78;;;24.21;24.79
46291;BME280;32023;44.444;26.006;2023-04-08T11:24:13;100977.53;;;23.37;25.76
46291;BME280;32023;44.444;26.006;2023-04-08T11:26:41;100980.41;;;22.41;26.60
46291;BME280;32023;44.444;26.006;2023-04-08T11:29:11;100975.13;;;21.42;27.77
46291;BME280;32023;44.444;26.006;2023-04-08T11:31:40;100974.88;;;20.66;28.82
46291;BME280;32023;44.444;26.006;2023-04-08T11:34:08;100974.63;;;20.08;29.64
46291;BME280;32023;44.444;26.006;2023-04-08T11:36:34;100969.91;;;19.58;30.24
46291;BME280;32023;44.444;26.006;2023-04-08T11:39:07;100969.25;;;19.10;30.90
46291;BME280;32023;44.444;26.006;2023-04-08T11:41:44;100974.09;;;18.62;31.64
46291;BME280;32023;44.444;26.006;2023-04-08T11:44:11;100966.63;;;18.34;32.13
46291;BME280;32023;44.444;26.006;2023-04-08T11:46:40;100969.22;;;18.01;32.75
46291;BME280;32023;44.444;26.006;2023-04-08T11:49:08;100971.97;;;17.72;33.18
46291;BME280;32023;44.444;26.006;2023-04-08T11:52:03;100957.41;;;17.47;33.39
46291;BME280;32023;44.444;26.006;2023-04-08T11:54:30;100963.00;;;17.47;33.50
46291;BME280;32023;44.444;26.006;2023-04-08T11:57:03;100961.81;;;17.53;33.47
46291;BME280;32023;44.444;26.006;2023-04-08T11:59:29;100954.19;;;17.68;33.51
46291;BME280;32023;44.444;26.006;2023-04-08T12:01:56;100941.66;;;17.95;33.06
46291;BME280;32023;44.444;26.006;2023-04-08T12:04:31;100944.44;;;18.23;32.71
46291;BME280;32023;44.444;26.006;2023-04-08T12:07:06;100948.34;;;18.22;32.58
46291;BME280;32023;44.444;26.006;2023-04-08T12:13:18;100947.75;;;18.25;32.60
46291;BME280;32023;44.444;26.006;2023-04-08T12:15:53;100945.66;;;18.36;32.13
46291;BME280;32023;44.444;26.006;2023-04-08T12:18:20;100939.63;;;18.53;32.05
46291;BME280;32023;44.444;26.006;2023-04-08T12:20:47;100936.88;;;18.90;31.38
46291;BME280;32023;44.444;26.006;2023-04-08T12:23:21;100936.44;;;19.02;30.97
46291;BME280;32023;44.444;26.006;2023-04-08T12:25:51;100928.69;;;18.99;31.07
46291;BME280;32023;44.444;26.006;2023-04-08T12:28:20;100937.78;;;18.86;30.93
46291;BME280;32023;44.444;26.006;2023-04-08T12:30:50;100931.00;;;18.73;31.34
46291;BME280;32023;44.444;26.006;2023-04-08T12:33:24;100931.91;;;18.68;31.47
46291;BME280;32023;44.444;26.006;2023-04-08T12:35:51;100923.75;;;18.72;31.63
46291;BME280;32023;44.444;26.006;2023-04-08T12:38:24;100925.72;;;18.71;31.60
46291;BME280;32023;44.444;26.006;2023-04-08T12:40:57;100916.50;;;18.71;31.35
46291;BME280;32023;44.444;26.006;2023-04-08T12:43:30;100905.34;;;18.71;31.36
46291;BME280;32023;44.444;26.006;2023-04-08T12:46:03;100908.31;;;18.80;31.29
46291;BME280;32023;44.444;26.006;2023-04-08T12:48:29;100902.13;;;18.83;31.10
46291;BME280;32023;44.444;26.006;2023-04-08T12:50:56;100895.47;;;18.97;31.13
46291;BME280;32023;44.444;26.006;2023-04-08T12:53:23;100901.59;;;18.99;31.12
46291;BME280;32023;44.444;26.006;2023-04-08T12:55:52;100891.34;;;18.76;31.38
46291;BME280;32023;44.444;26.006;2023-04-08T12:58:34;100894.63;;;18.59;31.43
46291;BME280;32023;44.444;26.006;2023-04-08T13:01:01;100896.41;;;18.50;31.46
46291;BME280;32023;44.444;26.006;2023-04-08T13:03:28;100894.81;;;18.44;31.63
46291;BME280;32023;44.444;26.006;2023-04-08T13:06:01;100894.63;;;18.36;31.67
46291;BME280;32023;44.444;26.006;2023-04-08T13:08:33;100894.25;;;18.23;31.78
46291;BME280;32023;44.444;26.006;2023-04-08T13:10:59;100899.56;;;17.72;32.46
46291;BME280;32023;44.444;26.006;2023-04-08T13:13:28;100893.34;;;17.52;33.05
46291;BME280;32023;44.444;26.006;2023-04-08T13:15:55;100898.41;;;17.45;32.97
46291;BME280;32023;44.444;26.006;2023-04-08T13:18:25;100899.03;;;17.37;33.09
46291;BME280;32023;44.444;26.006;2023-04-08T13:20:51;100899.56;;;17.39;32.74